sensor_id;sensor_type;location;lat;lon;timestamp;P1;durP1;ratioP1;P2;durP2;ratioP2
75426;SDS011;64007;50.632;13.700;2023-03-22T00:00:35;3.75;;;1.23;;
75426;SDS011;64007;50.632;13.700;2023-03-22T00:03:18;2.90;;;1.30;;
75426;SDS011;64007;50.632;13.700;2023-03-22T00:05:44;2.78;;;1.20;;
75426;SDS011;64007;50.632;13.700;2023-03-22T00:08:10;3.63;;;1.17;;
75426;SDS011;64007;50.632;13.700;2023-03-22T00:10:38;4.35;;;1.25;;
75426;SDS011;64007;50.632;13.700;2023-03-22T00:13:05;5.07;;;1.20;;
75426;SDS011;64007;50.632;13.700;2023-03-22T00:15:33;3.78;;;1.40;;
75426;SDS011;64007;50.632;13.700;2023-03-22T00:17:59;4.07;;;1.50;;
75426;SDS011;64007;50.632;13.700;2023-03-22T00:20:26;4.63;;;1.45;;
75426;SDS011;64007;50.632;13.700;2023-03-22T00:22:58;2.83;;;1.00;;
75426;SDS011;64007;50.632;13.700;2023-03-22T00:25:24;2.80;;;1.20;;
75426;SDS011;64007;50.632;13.700;2023-03-22T00:27:51;2.45;;;1.00;;
75426;SDS011;64007;50.632;13.700;2023-03-22T00:30:16;5.43;;;1.25;;
75426;SDS011;64007;50.632;13.700;2023-03-22T00:32:42;6.38;;;1.00;;
75426;SDS011;64007;50.632;13.700;2023-03-22T00:35:08;2.75;;;1.30;;
75426;SDS011;64007;50.632;13.700;2023-03-22T00:37:35;5.95;;;1.30;;
75426;SDS011;64007;50.632;13.700;2023-03-22T00:40:12;4.18;;;1.48;;
75426;SDS011;64007;50.632;13.700;2023-03-22T00:42:39;4.13;;;1.60;;
75426;SDS011;64007;50.632;13.700;2023-03-22T00:45:06;3.65;;;1.52;;
75426;SDS011;64007;50.632;13.700;2023-03-22T00:47:34;6.18;;;1.83;;
75426;SDS011;64007;50.632;13.700;2023-03-22T00:49:59;7.47;;;2.75;;
75426;SDS011;64007;50.632;13.700;2023-03-22T00:52:25;8.05;;;3.00;;
75426;SDS011;64007;50.632;13.700;2023-03-22T00:54:51;5.53;;;2.60;;
75426;SDS011;64007;50.632;13.700;2023-03-22T00:57:17;5.82;;;2.00;;
75426;SDS011;64007;50.632;13.700;2023-03-22T00:59:43;5.63;;;2.00;;
75426;SDS011;64007;50.632;13.700;2023-03-22T01:02:09;6.68;;;2.47;;
75426;SDS011;64007;50.632;13.700;2023-03-22T01:04:38;8.07;;;3.00;;
75426;SDS011;64007;50.632;13.700;2023-03-22T01:07:14;12.82;;;3.90;;
75426;SDS011;64007;50.632;13.700;2023-03-22T01:09:49;9.68;;;3.92;;
75426;SDS011;64007;50.632;13.700;2023-03-22T01:12:16;9.85;;;3.65;;
75426;SDS011;64007;50.632;13.700;2023-03-22T01:14:42;11.38;;;3.67;;
75426;SDS011;64007;50.632;13.700;2023-03-22T01:17:08;9.45;;;4.15;;
75426;SDS011;64007;50.632;13.700;2023-03-22T01:19:35;8.30;;;3.70;;
75426;SDS011;64007;50.632;13.700;2023-03-22T01:22:03;8.23;;;3.40;;
75426;SDS011;64007;50.632;13.700;2023-03-22T01:24:29;10.63;;;3.58;;
75426;SDS011;64007;50.632;13.700;2023-03-22T01:26:56;7.68;;;3.65;;
75426;SDS011;64007;50.632;13.700;2023-03-22T01:29:22;7.97;;;3.25;;
75426;SDS011;64007;50.632;13.700;2023-03-22T01:31:49;7.53;;;2.63;;
75426;SDS011;64007;50.632;13.700;2023-03-22T01:34:15;7.95;;;2.60;;
75426;SDS011;64007;50.632;13.700;2023-03-22T01:36:41;8.13;;;2.40;;
75426;SDS011;64007;50.632;13.700;2023-03-22T01:39:07;7.28;;;1.90;;
75426;SDS011;64007;50.632;13.700;2023-03-22T01:41:33;6.57;;;1.70;;
75426;SDS011;64007;50.632;13.700;2023-03-22T01:44:06;2.70;;;1.70;;
75426;SDS011;64007;50.632;13.700;2023-03-22T01:46:38;3.65;;;1.80;;
75426;SDS011;64007;50.632;13.700;2023-03-22T01:49:04;4.18;;;1.75;;
75426;SDS011;64007;50.632;13.700;2023-03-22T01:51:33;3.95;;;1.58;;
75426;SDS011;64007;50.632;13.700;2023-03-22T01:54:04;4.78;;;2.00;;
75426;SDS011;64007;50.632;13.700;2023-03-22T01:56:34;3.60;;;1.88;;
75426;SDS011;64007;50.632;13.700;2023-03-22T01:59:03;4.00;;;1.83;;
75426;SDS011;64007;50.632;13.700;2023-03-22T02:01:29;5.85;;;1.30;;
75426;SDS011;64007;50.632;13.700;2023-03-22T02:06:29;4.80;;;1.17;;
75426;SDS011;64007;50.632;13.700;2023-03-22T02:08:56;2.95;;;1.20;;
75426;SDS011;64007;50.632;13.700;2023-03-22T02:11:30;2.35;;;1.65;;
75426;SDS011;64007;50.632;13.700;2023-03-22T02:14:18;2.92;;;1.40;;
75426;SDS011;64007;50.632;13.700;2023-03-22T02:28:36;2.60;;;1.77;;
75426;SDS011;64007;50.632;13.700;2023-03-22T02:44:07;4.15;;;1.80;;
75426;SDS011;64007;50.632;13.700;2023-03-22T02:49:28;3.05;;;1.30;;
75426;SDS011;64007;50.632;13.700;2023-03-22T02:52:01;1.70;;;1.13;;
75426;SDS011;64007;50.632;13.700;2023-03-22T02:54:39;2.15;;;1.33;;
75426;SDS011;64007;50.632;13.700;2023-03-22T02:57:21;1.58;;;1.00;;
75426;SDS011;64007;50.632;13.700;2023-03-22T02:59:57;2.25;;;1.00;;
75426;SDS011;64007;50.632;13.700;2023-03-22T03:02:25;1.50;;;1.00;;
75426;SDS011;64007;50.632;13.700;2023-03-22T03:04:53;3.28;;;1.40;;
75426;SDS011;64007;50.632;13.700;2023-03-22T03:07:21;2.42;;;1.10;;
75426;SDS011;64007;50.632;13.700;2023-03-22T03:09:51;4.60;;;1.35;;
75426;SDS011;64007;50.632;13.700;2023-03-22T03:12:18;2.45;;;1.20;;
75426;SDS011;64007;50.632;13.700;2023-03-22T03:14:46;1.58;;;1.10;;
75426;SDS011;64007;50.632;13.700;2023-03-22T03:17:55;12.55;;;1.35;;
75426;SDS011;64007;50.632;13.700;2023-03-22T03:28:16;2.42;;;1.08;;
75426;SDS011;64007;50.632;13.700;2023-03-22T03:30:49;1.60;;;1.10;;
75426;SDS011;64007;50.632;13.700;2023-03-22T03:33:21;4.00;;;1.20;;
75426;SDS011;64007;50.632;13.700;2023-03-22T03:35:51;3.17;;;1.00;;
75426;SDS011;64007;50.632;13.700;2023-03-22T03:38:24;2.08;;;1.08;;
75426;SDS011;64007;50.632;13.700;2023-03-22T03:40:54;2.35;;;1.00;;
75426;SDS011;64007;50.632;13.700;2023-03-22T03:43:24;4.82;;;1.02;;
75426;SDS011;64007;50.632;13.700;2023-03-22T03:45:52;5.35;;;1.25;;
75426;SDS011;64007;50.632;13.700;2023-03-22T03:48:20;4.28;;;1.08;;
75426;SDS011;64007;50.632;13.700;2023-03-22T03:50:49;3.20;;;1.20;;
75426;SDS011;64007;50.632;13.700;2023-03-22T03:53:17;6.45;;;1.20;;
75426;SDS011;64007;50.632;13.700;2023-03-22T03:55:43;4.68;;;1.70;;
75426;SDS011;64007;50.632;13.700;2023-03-22T03:58:08;10.57;;;1.98;;
75426;SDS011;64007;50.632;13.700;2023-03-22T04:00:35;5.63;;;2.10;;
75426;SDS011;64007;50.632;13.700;2023-03-22T04:03:02;7.47;;;1.98;;
75426;SDS011;64007;50.632;13.700;2023-03-22T04:05:29;6.50;;;2.10;;
75426;SDS011;64007;50.632;13.700;2023-03-22T04:07:54;4.43;;;1.90;;
75426;SDS011;64007;50.632;13.700;2023-03-22T04:10:20;3.25;;;1.77;;
75426;SDS011;64007;50.632;13.700;2023-03-22T04:12:46;5.93;;;1.35;;
75426;SDS011;64007;50.632;13.700;2023-03-22T04:15:11;4.20;;;1.58;;
75426;SDS011;64007;50.632;13.700;2023-03-22T04:17:38;2.25;;;1.42;;
75426;SDS011;64007;50.632;13.700;2023-03-22T04:20:04;5.30;;;1.20;;
75426;SDS011;64007;50.632;13.700;2023-03-22T04:22:31;3.47;;;1.30;;
75426;SDS011;64007;50.632;13.700;2023-03-22T04:24:59;2.20;;;1.35;;
75426;SDS011;64007;50.632;13.700;2023-03-22T04:27:25;3.42;;;1.42;;
75426;SDS011;64007;50.632;13.700;2023-03-22T04:29:52;1.50;;;1.10;;
75426;SDS011;64007;50.632;13.700;2023-03-22T04:32:18;3.63;;;1.50;;
75426;SDS011;64007;50.632;13.700;2023-03-22T04:34:50;5.10;;;1.38;;
75426;SDS011;64007;50.632;13.700;2023-03-22T04:37:18;9.32;;;2.85;;
75426;SDS011;64007;50.632;13.700;2023-03-22T04:39:47;6.95;;;2.30;;
75426;SDS011;64007;50.632;13.700;2023-03-22T04:42:12;8.10;;;2.03;;
75426;SDS011;64007;50.632;13.700;2023-03-22T04:44:38;7.85;;;1.88;;
75426;SDS011;64007;50.632;13.700;2023-03-22T04:47:03;6.78;;;2.40;;
75426;SDS011;64007;50.632;13.700;2023-03-22T04:49:29;11.23;;;2.90;;
75426;SDS011;64007;50.632;13.700;2023-03-22T04:51:55;11.25;;;3.30;;
75426;SDS011;64007;50.632;13.700;2023-03-22T04:54:22;12.25;;;3.10;;
75426;SDS011;64007;50.632;13.700;2023-03-22T04:56:48;5.75;;;2.25;;
75426;SDS011;64007;50.632;13.700;2023-03-22T04:59:15;4.25;;;2.22;;
75426;SDS011;64007;50.632;13.700;2023-03-22T05:01:47;7.03;;;2.22;;
75426;SDS011;64007;50.632;13.700;2023-03-22T05:04:18;8.13;;;2.47;;
75426;SDS011;64007;50.632;13.700;2023-03-22T05:06:44;4.15;;;2.50;;
75426;SDS011;64007;50.632;13.700;2023-03-22T05:09:11;8.48;;;2.83;;
75426;SDS011;64007;50.632;13.700;2023-03-22T05:11:37;5.43;;;2.47;;
75426;SDS011;64007;50.632;13.700;2023-03-22T05:14:03;16.52;;;3.30;;
75426;SDS011;64007;50.632;13.700;2023-03-22T05:16:29;6.15;;;2.70;;
75426;SDS011;64007;50.632;13.700;2023-03-22T05:18:55;7.90;;;2.90;;
75426;SDS011;64007;50.632;13.700;2023-03-22T05:21:22;7.65;;;3.58;;
75426;SDS011;64007;50.632;13.700;2023-03-22T05:23:53;6.53;;;2.88;;
75426;SDS011;64007;50.632;13.700;2023-03-22T05:26:20;5.55;;;2.55;;
75426;SDS011;64007;50.632;13.700;2023-03-22T05:28:49;5.28;;;2.50;;
75426;SDS011;64007;50.632;13.700;2023-03-22T05:31:15;9.00;;;3.30;;
75426;SDS011;64007;50.632;13.700;2023-03-22T05:33:42;7.53;;;3.60;;
75426;SDS011;64007;50.632;13.700;2023-03-22T05:36:10;8.65;;;3.72;;
75426;SDS011;64007;50.632;13.700;2023-03-22T05:38:36;10.88;;;4.72;;
75426;SDS011;64007;50.632;13.700;2023-03-22T05:41:02;15.23;;;4.20;;
75426;SDS011;64007;50.632;13.700;2023-03-22T05:43:28;20.63;;;4.85;;
75426;SDS011;64007;50.632;13.700;2023-03-22T05:45:54;9.63;;;4.40;;
75426;SDS011;64007;50.632;13.700;2023-03-22T05:48:20;13.50;;;5.05;;
75426;SDS011;64007;50.632;13.700;2023-03-22T05:50:46;14.43;;;4.35;;
75426;SDS011;64007;50.632;13.700;2023-03-22T05:53:11;18.73;;;5.00;;
75426;SDS011;64007;50.632;13.700;2023-03-22T05:55:37;21.27;;;4.78;;
75426;SDS011;64007;50.632;13.700;2023-03-22T05:58:03;7.97;;;4.53;;
75426;SDS011;64007;50.632;13.700;2023-03-22T06:00:29;11.10;;;5.22;;
75426;SDS011;64007;50.632;13.700;2023-03-22T06:03:00;11.30;;;5.15;;
75426;SDS011;64007;50.632;13.700;2023-03-22T06:05:28;14.02;;;4.75;;
75426;SDS011;64007;50.632;13.700;2023-03-22T06:07:56;19.92;;;6.03;;
75426;SDS011;64007;50.632;13.700;2023-03-22T06:10:24;9.55;;;4.97;;
75426;SDS011;64007;50.632;13.700;2023-03-22T06:12:51;10.65;;;5.55;;
75426;SDS011;64007;50.632;13.700;2023-03-22T06:15:17;16.60;;;4.68;;
75426;SDS011;64007;50.632;13.700;2023-03-22T06:17:43;11.43;;;5.60;;
75426;SDS011;64007;50.632;13.700;2023-03-22T06:20:10;11.20;;;4.80;;
75426;SDS011;64007;50.632;13.700;2023-03-22T06:22:38;10.45;;;5.95;;
75426;SDS011;64007;50.632;13.700;2023-03-22T06:25:05;17.73;;;6.65;;
75426;SDS011;64007;50.632;13.700;2023-03-22T06:27:34;18.15;;;6.88;;
75426;SDS011;64007;50.632;13.700;2023-03-22T06:30:00;15.07;;;6.50;;
75426;SDS011;64007;50.632;13.700;2023-03-22T06:32:26;10.90;;;5.25;;
75426;SDS011;64007;50.632;13.700;2023-03-22T06:34:52;11.45;;;5.35;;
75426;SDS011;64007;50.632;13.700;2023-03-22T06:37:19;9.93;;;4.18;;
75426;SDS011;64007;50.632;13.700;2023-03-22T06:39:45;13.57;;;4.90;;
75426;SDS011;64007;50.632;13.700;2023-03-22T06:42:11;12.55;;;5.32;;
75426;SDS011;64007;50.632;13.700;2023-03-22T06:44:37;14.23;;;5.40;;
75426;SDS011;64007;50.632;13.700;2023-03-22T06:47:03;15.55;;;6.10;;
75426;SDS011;64007;50.632;13.700;2023-03-22T06:49:29;14.15;;;5.90;;
75426;SDS011;64007;50.632;13.700;2023-03-22T06:51:55;10.60;;;5.50;;
75426;SDS011;64007;50.632;13.700;2023-03-22T06:54:21;12.75;;;5.72;;
75426;SDS011;64007;50.632;13.700;2023-03-22T06:56:47;11.93;;;5.28;;
75426;SDS011;64007;50.632;13.700;2023-03-22T06:59:13;11.55;;;4.97;;
75426;SDS011;64007;50.632;13.700;2023-03-22T07:01:39;14.00;;;3.55;;
75426;SDS011;64007;50.632;13.700;2023-03-22T07:04:04;5.63;;;2.90;;
75426;SDS011;64007;50.632;13.700;2023-03-22T07:06:30;5.75;;;2.90;;
75426;SDS011;64007;50.632;13.700;2023-03-22T07:08:57;7.90;;;3.17;;
75426;SDS011;64007;50.632;13.700;2023-03-22T07:11:23;7.78;;;3.65;;
75426;SDS011;64007;50.632;13.700;2023-03-22T07:13:50;8.48;;;3.20;;
75426;SDS011;64007;50.632;13.700;2023-03-22T07:16:17;8.27;;;3.15;;
75426;SDS011;64007;50.632;13.700;2023-03-22T07:18:42;6.80;;;2.88;;
75426;SDS011;64007;50.632;13.700;2023-03-22T07:21:08;7.88;;;3.70;;
75426;SDS011;64007;50.632;13.700;2023-03-22T07:23:34;6.55;;;3.00;;
75426;SDS011;64007;50.632;13.700;2023-03-22T07:26:00;5.43;;;2.80;;
75426;SDS011;64007;50.632;13.700;2023-03-22T07:28:25;5.95;;;2.75;;
75426;SDS011;64007;50.632;13.700;2023-03-22T07:31:01;4.72;;;2.65;;
75426;SDS011;64007;50.632;13.700;2023-03-22T07:33:27;7.70;;;2.80;;
75426;SDS011;64007;50.632;13.700;2023-03-22T07:35:53;6.30;;;2.95;;
75426;SDS011;64007;50.632;13.700;2023-03-22T07:38:19;7.55;;;2.78;;
75426;SDS011;64007;50.632;13.700;2023-03-22T07:40:45;6.50;;;2.70;;
75426;SDS011;64007;50.632;13.700;2023-03-22T07:43:10;7.15;;;3.05;;
75426;SDS011;64007;50.632;13.700;2023-03-22T07:45:37;7.55;;;2.85;;
75426;SDS011;64007;50.632;13.700;2023-03-22T07:48:05;5.10;;;2.70;;
75426;SDS011;64007;50.632;13.700;2023-03-22T07:50:31;8.30;;;3.05;;
75426;SDS011;64007;50.632;13.700;2023-03-22T07:52:56;7.10;;;3.15;;
75426;SDS011;64007;50.632;13.700;2023-03-22T07:55:22;10.38;;;4.15;;
75426;SDS011;64007;50.632;13.700;2023-03-22T07:57:48;8.23;;;4.40;;
75426;SDS011;64007;50.632;13.700;2023-03-22T08:00:14;13.02;;;4.82;;
75426;SDS011;64007;50.632;13.700;2023-03-22T08:02:40;9.95;;;3.92;;
75426;SDS011;64007;50.632;13.700;2023-03-22T08:05:10;12.95;;;4.30;;
75426;SDS011;64007;50.632;13.700;2023-03-22T08:07:36;7.05;;;4.10;;
75426;SDS011;64007;50.632;13.700;2023-03-22T08:10:02;11.45;;;4.63;;
75426;SDS011;64007;50.632;13.700;2023-03-22T08:12:28;13.00;;;4.47;;
75426;SDS011;64007;50.632;13.700;2023-03-22T08:14:54;11.52;;;4.45;;
75426;SDS011;64007;50.632;13.700;2023-03-22T08:17:20;10.27;;;4.60;;
75426;SDS011;64007;50.632;13.700;2023-03-22T08:19:46;10.43;;;3.90;;
75426;SDS011;64007;50.632;13.700;2023-03-22T08:22:11;10.13;;;4.32;;
75426;SDS011;64007;50.632;13.700;2023-03-22T08:24:38;11.82;;;4.43;;
75426;SDS011;64007;50.632;13.700;2023-03-22T08:27:03;8.90;;;3.88;;
75426;SDS011;64007;50.632;13.700;2023-03-22T08:29:30;11.38;;;3.88;;
75426;SDS011;64007;50.632;13.700;2023-03-22T08:31:55;12.57;;;4.00;;
75426;SDS011;64007;50.632;13.700;2023-03-22T08:34:29;12.27;;;4.15;;
75426;SDS011;64007;50.632;13.700;2023-03-22T08:36:55;12.68;;;4.18;;
75426;SDS011;64007;50.632;13.700;2023-03-22T08:39:21;8.77;;;4.25;;
75426;SDS011;64007;50.632;13.700;2023-03-22T08:41:47;11.75;;;4.60;;
75426;SDS011;64007;50.632;13.700;2023-03-22T08:44:13;6.63;;;3.92;;
75426;SDS011;64007;50.632;13.700;2023-03-22T08:46:39;10.10;;;4.30;;
75426;SDS011;64007;50.632;13.700;2023-03-22T08:49:05;10.07;;;4.63;;
75426;SDS011;64007;50.632;13.700;2023-03-22T08:51:31;8.55;;;4.00;;
75426;SDS011;64007;50.632;13.700;2023-03-22T08:53:56;10.32;;;4.47;;
75426;SDS011;64007;50.632;13.700;2023-03-22T08:56:24;8.85;;;3.58;;
75426;SDS011;64007;50.632;13.700;2023-03-22T08:58:52;9.60;;;4.28;;
75426;SDS011;64007;50.632;13.700;2023-03-22T09:01:18;10.18;;;4.53;;
75426;SDS011;64007;50.632;13.700;2023-03-22T09:03:45;10.52;;;4.40;;
75426;SDS011;64007;50.632;13.700;2023-03-22T09:06:11;12.73;;;4.30;;
75426;SDS011;64007;50.632;13.700;2023-03-22T09:08:38;12.32;;;4.88;;
75426;SDS011;64007;50.632;13.700;2023-03-22T09:11:06;12.27;;;3.88;;
75426;SDS011;64007;50.632;13.700;2023-03-22T09:13:33;8.88;;;4.00;;
75426;SDS011;64007;50.632;13.700;2023-03-22T09:15:59;8.68;;;3.67;;
75426;SDS011;64007;50.632;13.700;2023-03-22T09:18:25;9.32;;;3.85;;
75426;SDS011;64007;50.632;13.700;2023-03-22T09:20:51;7.45;;;4.30;;
75426;SDS011;64007;50.632;13.700;2023-03-22T09:23:18;10.13;;;4.50;;
75426;SDS011;64007;50.632;13.700;2023-03-22T09:25:44;10.75;;;4.47;;
75426;SDS011;64007;50.632;13.700;2023-03-22T09:28:11;12.73;;;4.45;;
75426;SDS011;64007;50.632;13.700;2023-03-22T09:30:37;9.07;;;4.15;;
75426;SDS011;64007;50.632;13.700;2023-03-22T09:33:04;9.57;;;5.00;;
75426;SDS011;64007;50.632;13.700;2023-03-22T09:35:31;8.18;;;4.35;;
75426;SDS011;64007;50.632;13.700;2023-03-22T09:37:57;5.60;;;4.03;;
75426;SDS011;64007;50.632;13.700;2023-03-22T09:40:26;7.53;;;4.22;;
75426;SDS011;64007;50.632;13.700;2023-03-22T09:42:56;10.73;;;3.97;;
75426;SDS011;64007;50.632;13.700;2023-03-22T09:45:25;8.63;;;4.07;;
75426;SDS011;64007;50.632;13.700;2023-03-22T09:48:03;8.05;;;3.80;;
75426;SDS011;64007;50.632;13.700;2023-03-22T09:50:37;10.65;;;3.90;;
75426;SDS011;64007;50.632;13.700;2023-03-22T09:53:17;8.13;;;4.28;;
75426;SDS011;64007;50.632;13.700;2023-03-22T09:55:55;12.00;;;3.97;;
75426;SDS011;64007;50.632;13.700;2023-03-22T10:01:09;11.70;;;4.00;;
75426;SDS011;64007;50.632;13.700;2023-03-22T10:03:57;14.73;;;4.20;;
75426;SDS011;64007;50.632;13.700;2023-03-22T10:06:32;9.30;;;3.88;;
75426;SDS011;64007;50.632;13.700;2023-03-22T10:14:25;5.38;;;2.30;;
75426;SDS011;64007;50.632;13.700;2023-03-22T10:16:59;10.25;;;2.58;;
75426;SDS011;64007;50.632;13.700;2023-03-22T10:22:00;4.90;;;2.20;;
75426;SDS011;64007;50.632;13.700;2023-03-22T10:24:33;5.20;;;2.33;;
75426;SDS011;64007;50.632;13.700;2023-03-22T10:27:02;7.47;;;1.88;;
75426;SDS011;64007;50.632;13.700;2023-03-22T10:32:29;3.67;;;1.70;;
75426;SDS011;64007;50.632;13.700;2023-03-22T10:35:04;7.88;;;1.73;;
75426;SDS011;64007;50.632;13.700;2023-03-22T10:37:33;4.65;;;1.77;;
75426;SDS011;64007;50.632;13.700;2023-03-22T10:40:04;3.90;;;1.30;;
75426;SDS011;64007;50.632;13.700;2023-03-22T10:42:31;2.25;;;1.30;;
75426;SDS011;64007;50.632;13.700;2023-03-22T10:47:31;3.00;;;1.48;;
75426;SDS011;64007;50.632;13.700;2023-03-22T10:50:02;2.78;;;1.30;;
75426;SDS011;64007;50.632;13.700;2023-03-22T10:55:15;3.97;;;0.93;;
75426;SDS011;64007;50.632;13.700;2023-03-22T10:57:41;2.15;;;1.10;;
75426;SDS011;64007;50.632;13.700;2023-03-22T11:00:16;5.88;;;1.10;;
75426;SDS011;64007;50.632;13.700;2023-03-22T11:02:52;3.05;;;1.85;;
75426;SDS011;64007;50.632;13.700;2023-03-22T11:05:28;5.40;;;1.90;;
75426;SDS011;64007;50.632;13.700;2023-03-22T11:07:55;6.15;;;2.38;;
75426;SDS011;64007;50.632;13.700;2023-03-22T11:10:24;5.45;;;2.28;;
75426;SDS011;64007;50.632;13.700;2023-03-22T11:12:54;14.93;;;3.42;;
75426;SDS011;64007;50.632;13.700;2023-03-22T11:15:27;7.90;;;2.20;;
75426;SDS011;64007;50.632;13.700;2023-03-22T11:18:03;6.13;;;2.05;;
75426;SDS011;64007;50.632;13.700;2023-03-22T11:20:32;6.25;;;2.20;;
75426;SDS011;64007;50.632;13.700;2023-03-22T11:23:00;2.50;;;1.02;;
75426;SDS011;64007;50.632;13.700;2023-03-22T11:25:30;1.63;;;1.02;;
75426;SDS011;64007;50.632;13.700;2023-03-22T11:30:29;3.05;;;0.90;;
75426;SDS011;64007;50.632;13.700;2023-03-22T11:33:17;1.95;;;0.77;;
75426;SDS011;64007;50.632;13.700;2023-03-22T11:35:44;2.85;;;0.80;;
75426;SDS011;64007;50.632;13.700;2023-03-22T11:41:06;5.82;;;0.80;;
75426;SDS011;64007;50.632;13.700;2023-03-22T11:43:39;2.20;;;0.90;;
75426;SDS011;64007;50.632;13.700;2023-03-22T11:46:13;3.53;;;1.00;;
75426;SDS011;64007;50.632;13.700;2023-03-22T11:48:41;2.35;;;0.70;;
75426;SDS011;64007;50.632;13.700;2023-03-22T11:51:10;9.25;;;3.72;;
75426;SDS011;64007;50.632;13.700;2023-03-22T11:53:38;15.45;;;8.18;;
75426;SDS011;64007;50.632;13.700;2023-03-22T11:56:07;2.15;;;0.90;;
75426;SDS011;64007;50.632;13.700;2023-03-22T12:01:04;7.35;;;1.35;;
75426;SDS011;64007;50.632;13.700;2023-03-22T12:03:32;1.13;;;0.80;;
75426;SDS011;64007;50.632;13.700;2023-03-22T12:06:03;5.30;;;1.35;;
75426;SDS011;64007;50.632;13.700;2023-03-22T12:08:48;1.85;;;0.95;;
75426;SDS011;64007;50.632;13.700;2023-03-22T12:11:23;2.70;;;1.00;;
75426;SDS011;64007;50.632;13.700;2023-03-22T12:13:54;2.45;;;1.13;;
75426;SDS011;64007;50.632;13.700;2023-03-22T12:16:23;6.20;;;1.10;;
75426;SDS011;64007;50.632;13.700;2023-03-22T12:19:12;3.27;;;1.27;;
75426;SDS011;64007;50.632;13.700;2023-03-22T12:21:52;3.88;;;1.10;;
75426;SDS011;64007;50.632;13.700;2023-03-22T12:24:29;2.15;;;0.82;;
75426;SDS011;64007;50.632;13.700;2023-03-22T12:26:57;2.92;;;1.10;;
75426;SDS011;64007;50.632;13.700;2023-03-22T12:32:05;2.15;;;1.10;;
75426;SDS011;64007;50.632;13.700;2023-03-22T12:34:40;3.72;;;1.00;;
75426;SDS011;64007;50.632;13.700;2023-03-22T12:37:31;2.15;;;0.93;;
75426;SDS011;64007;50.632;13.700;2023-03-22T12:40:00;2.88;;;0.88;;
75426;SDS011;64007;50.632;13.700;2023-03-22T12:45:25;2.08;;;0.90;;
75426;SDS011;64007;50.632;13.700;2023-03-22T12:47:55;2.40;;;0.90;;
75426;SDS011;64007;50.632;13.700;2023-03-22T12:50:41;2.38;;;1.27;;
75426;SDS011;64007;50.632;13.700;2023-03-22T12:53:12;2.10;;;0.95;;
75426;SDS011;64007;50.632;13.700;2023-03-22T12:55:40;2.55;;;1.05;;
75426;SDS011;64007;50.632;13.700;2023-03-22T12:58:09;1.48;;;1.00;;
75426;SDS011;64007;50.632;13.700;2023-03-22T13:00:38;2.15;;;0.90;;
75426;SDS011;64007;50.632;13.700;2023-03-22T13:05:40;5.32;;;1.50;;
75426;SDS011;64007;50.632;13.700;2023-03-22T13:08:06;4.47;;;1.30;;
75426;SDS011;64007;50.632;13.700;2023-03-22T13:13:13;2.35;;;1.77;;
75426;SDS011;64007;50.632;13.700;2023-03-22T13:18:37;2.55;;;1.10;;
75426;SDS011;64007;50.632;13.700;2023-03-22T13:21:22;3.67;;;1.23;;
75426;SDS011;64007;50.632;13.700;2023-03-22T13:26:43;4.28;;;2.42;;
75426;SDS011;64007;50.632;13.700;2023-03-22T13:29:15;4.78;;;1.70;;
75426;SDS011;64007;50.632;13.700;2023-03-22T13:31:56;1.27;;;0.98;;
75426;SDS011;64007;50.632;13.700;2023-03-22T13:34:37;2.60;;;1.05;;
75426;SDS011;64007;50.632;13.700;2023-03-22T13:37:09;2.25;;;1.00;;
75426;SDS011;64007;50.632;13.700;2023-03-22T13:39:50;3.60;;;1.20;;
75426;SDS011;64007;50.632;13.700;2023-03-22T13:42:26;4.65;;;1.10;;
75426;SDS011;64007;50.632;13.700;2023-03-22T13:45:00;7.22;;;1.70;;
75426;SDS011;64007;50.632;13.700;2023-03-22T13:47:44;3.25;;;1.25;;
75426;SDS011;64007;50.632;13.700;2023-03-22T13:52:52;4.97;;;1.80;;
75426;SDS011;64007;50.632;13.700;2023-03-22T13:58:48;3.60;;;1.98;;
75426;SDS011;64007;50.632;13.700;2023-03-22T14:00:54;9.18;;;1.70;;
75426;SDS011;64007;50.632;13.700;2023-03-22T14:03:23;5.18;;;2.42;;
75426;SDS011;64007;50.632;13.700;2023-03-22T14:05:57;3.85;;;2.05;;
75426;SDS011;64007;50.632;13.700;2023-03-22T14:08:28;6.45;;;1.60;;
75426;SDS011;64007;50.632;13.700;2023-03-22T14:10:55;2.72;;;1.40;;
75426;SDS011;64007;50.632;13.700;2023-03-22T14:16:05;4.40;;;1.27;;
75426;SDS011;64007;50.632;13.700;2023-03-22T14:18:37;3.17;;;1.10;;
75426;SDS011;64007;50.632;13.700;2023-03-22T14:21:06;3.13;;;1.10;;
75426;SDS011;64007;50.632;13.700;2023-03-22T14:23:38;2.63;;;1.10;;
75426;SDS011;64007;50.632;13.700;2023-03-22T14:26:27;2.25;;;1.27;;
75426;SDS011;64007;50.632;13.700;2023-03-22T14:29:15;4.82;;;1.15;;
75426;SDS011;64007;50.632;13.700;2023-03-22T14:31:44;3.92;;;1.63;;
75426;SDS011;64007;50.632;13.700;2023-03-22T14:34:12;1.90;;;0.95;;
75426;SDS011;64007;50.632;13.700;2023-03-22T14:36:41;2.40;;;1.20;;
75426;SDS011;64007;50.632;13.700;2023-03-22T14:39:16;1.67;;;1.10;;
75426;SDS011;64007;50.632;13.700;2023-03-22T14:42:00;2.65;;;0.90;;
75426;SDS011;64007;50.632;13.700;2023-03-22T14:44:30;3.08;;;1.80;;
75426;SDS011;64007;50.632;13.700;2023-03-22T14:47:23;2.20;;;1.23;;
75426;SDS011;64007;50.632;13.700;2023-03-22T14:49:54;3.50;;;1.33;;
75426;SDS011;64007;50.632;13.700;2023-03-22T14:52:22;2.42;;;1.35;;
75426;SDS011;64007;50.632;13.700;2023-03-22T14:54:55;7.78;;;1.30;;
75426;SDS011;64007;50.632;13.700;2023-03-22T14:57:27;2.30;;;1.20;;
75426;SDS011;64007;50.632;13.700;2023-03-22T14:59:56;3.92;;;1.52;;
75426;SDS011;64007;50.632;13.700;2023-03-22T15:02:33;3.25;;;1.92;;
75426;SDS011;64007;50.632;13.700;2023-03-22T15:05:18;3.33;;;2.28;;
75426;SDS011;64007;50.632;13.700;2023-03-22T15:07:48;7.32;;;3.45;;
75426;SDS011;64007;50.632;13.700;2023-03-22T15:12:56;2.28;;;1.25;;
75426;SDS011;64007;50.632;13.700;2023-03-22T15:15:25;2.72;;;1.10;;
75426;SDS011;64007;50.632;13.700;2023-03-22T15:17:54;2.47;;;1.10;;
75426;SDS011;64007;50.632;13.700;2023-03-22T15:20:29;3.33;;;1.35;;
75426;SDS011;64007;50.632;13.700;2023-03-22T15:22:58;30.40;;;2.00;;
75426;SDS011;64007;50.632;13.700;2023-03-22T15:25:33;4.40;;;1.75;;
75426;SDS011;64007;50.632;13.700;2023-03-22T15:28:01;4.43;;;1.38;;
75426;SDS011;64007;50.632;13.700;2023-03-22T15:30:30;6.03;;;2.42;;
75426;SDS011;64007;50.632;13.700;2023-03-22T15:33:00;3.70;;;1.50;;
75426;SDS011;64007;50.632;13.700;2023-03-22T15:35:30;3.92;;;1.75;;
75426;SDS011;64007;50.632;13.700;2023-03-22T15:37:56;4.13;;;1.40;;
75426;SDS011;64007;50.632;13.700;2023-03-22T15:40:28;10.00;;;1.73;;
75426;SDS011;64007;50.632;13.700;2023-03-22T15:43:13;11.27;;;4.70;;
75426;SDS011;64007;50.632;13.700;2023-03-22T15:46:09;2.45;;;1.35;;
75426;SDS011;64007;50.632;13.700;2023-03-22T15:48:51;4.78;;;1.75;;
75426;SDS011;64007;50.632;13.700;2023-03-22T15:51:30;4.82;;;1.48;;
75426;SDS011;64007;50.632;13.700;2023-03-22T15:54:04;13.43;;;2.80;;
75426;SDS011;64007;50.632;13.700;2023-03-22T15:56:37;9.50;;;2.25;;
75426;SDS011;64007;50.632;13.700;2023-03-22T15:59:16;2.92;;;1.70;;
75426;SDS011;64007;50.632;13.700;2023-03-22T16:01:45;4.30;;;1.42;;
75426;SDS011;64007;50.632;13.700;2023-03-22T16:04:22;10.85;;;2.28;;
75426;SDS011;64007;50.632;13.700;2023-03-22T16:06:49;3.83;;;1.83;;
75426;SDS011;64007;50.632;13.700;2023-03-22T16:09:16;2.78;;;1.50;;
75426;SDS011;64007;50.632;13.700;2023-03-22T16:11:43;4.10;;;2.13;;
75426;SDS011;64007;50.632;13.700;2023-03-22T16:14:13;4.63;;;2.17;;
75426;SDS011;64007;50.632;13.700;2023-03-22T16:16:41;3.63;;;2.00;;